sensor_id;sensor_type;location;lat;lon;timestamp;P1;durP1;ratioP1;P2;durP2;ratioP2
44670;SDS011;48397;53.016;-2.260;2023-07-16T00:00:24;8.75;;;2.05;;
44670;SDS011;48397;53.016;-2.260;2023-07-16T00:02:54;5.20;;;1.65;;
44670;SDS011;48397;53.016;-2.260;2023-07-16T00:05:22;7.07;;;1.63;;
44670;SDS011;48397;53.016;-2.260;2023-07-16T00:07:50;8.15;;;2.05;;
44670;SDS011;48397;53.016;-2.260;2023-07-16T00:10:18;7.45;;;1.55;;
44670;SDS011;48397;53.016;-2.260;2023-07-16T00:12:46;5.63;;;2.28;;
44670;SDS011;48397;53.016;-2.260;2023-07-16T00:15:14;7.30;;;1.52;;
44670;SDS011;48397;53.016;-2.260;2023-07-16T00:20:10;5.97;;;2.47;;
44670;SDS011;48397;53.016;-2.260;2023-07-16T00:22:38;3.28;;;1.30;;
44670;SDS011;48397;53.016;-2.260;2023-07-16T00:30:01;5.95;;;1.90;;
44670;SDS011;48397;53.016;-2.260;2023-07-16T00:32:30;8.05;;;2.10;;
44670;SDS011;48397;53.016;-2.260;2023-07-16T00:34:58;8.35;;;2.08;;
44670;SDS011;48397;53.016;-2.260;2023-07-16T00:37:26;6.07;;;1.60;;
44670;SDS011;48397;53.016;-2.260;2023-07-16T00:39:54;8.43;;;1.80;;
44670;SDS011;48397;53.016;-2.260;2023-07-16T00:42:22;3.70;;;1.30;;
44670;SDS011;48397;53.016;-2.260;2023-07-16T00:44:51;9.95;;;1.60;;
44670;SDS011;48397;53.016;-2.260;2023-07-16T00:47:19;3.88;;;1.33;;
44670;SDS011;48397;53.016;-2.260;2023-07-16T00:49:47;4.75;;;1.65;;
44670;SDS011;48397;53.016;-2.260;2023-07-16T00:52:16;4.05;;;1.45;;
44670;SDS011;48397;53.016;-2.260;2023-07-16T00:54:45;2.67;;;1.20;;
44670;SDS011;48397;53.016;-2.260;2023-07-16T00:57:14;5.00;;;1.40;;
44670;SDS011;48397;53.016;-2.260;2023-07-16T00:59:43;3.97;;;1.13;;
44670;SDS011;48397;53.016;-2.260;2023-07-16T01:04:38;8.40;;;1.83;;
44670;SDS011;48397;53.016;-2.260;2023-07-16T01:07:06;11.68;;;1.95;;
44670;SDS011;48397;53.016;-2.260;2023-07-16T01:09:39;9.43;;;1.60;;
44670;SDS011;48397;53.016;-2.260;2023-07-16T01:12:09;7.88;;;1.50;;
44670;SDS011;48397;53.016;-2.260;2023-07-16T01:14:38;4.10;;;1.90;;
44670;SDS011;48397;53.016;-2.260;2023-07-16T01:17:07;6.13;;;1.55;;
44670;SDS011;48397;53.016;-2.260;2023-07-16T01:27:30;5.97;;;1.60;;
44670;SDS011;48397;53.016;-2.260;2023-07-16T01:30:20;6.13;;;1.60;;
44670;SDS011;48397;53.016;-2.260;2023-07-16T01:32:51;3.63;;;1.45;;
44670;SDS011;48397;53.016;-2.260;2023-07-16T01:35:20;5.72;;;1.60;;
44670;SDS011;48397;53.016;-2.260;2023-07-16T01:37:48;5.65;;;1.75;;
44670;SDS011;48397;53.016;-2.260;2023-07-16T01:40:16;7.75;;;1.83;;
44670;SDS011;48397;53.016;-2.260;2023-07-16T01:42:44;6.55;;;1.90;;
44670;SDS011;48397;53.016;-2.260;2023-07-16T01:50:38;5.05;;;1.60;;
44670;SDS011;48397;53.016;-2.260;2023-07-16T01:55:33;8.32;;;2.17;;
44670;SDS011;48397;53.016;-2.260;2023-07-16T01:58:01;5.70;;;1.63;;
44670;SDS011;48397;53.016;-2.260;2023-07-16T02:00:33;10.95;;;2.20;;
44670;SDS011;48397;53.016;-2.260;2023-07-16T02:03:01;5.90;;;1.65;;
44670;SDS011;48397;53.016;-2.260;2023-07-16T02:05:31;4.63;;;1.60;;
44670;SDS011;48397;53.016;-2.260;2023-07-16T02:07:59;3.97;;;1.70;;
44670;SDS011;48397;53.016;-2.260;2023-07-16T02:10:31;6.53;;;1.58;;
44670;SDS011;48397;53.016;-2.260;2023-07-16T02:12:59;6.93;;;1.80;;
44670;SDS011;48397;53.016;-2.260;2023-07-16T02:15:26;5.13;;;1.50;;
44670;SDS011;48397;53.016;-2.260;2023-07-16T02:17:54;6.55;;;1.83;;
44670;SDS011;48397;53.016;-2.260;2023-07-16T02:20:22;6.20;;;1.83;;
44670;SDS011;48397;53.016;-2.260;2023-07-16T02:22:50;6.68;;;1.50;;
44670;SDS011;48397;53.016;-2.260;2023-07-16T02:27:47;5.47;;;1.45;;
44670;SDS011;48397;53.016;-2.260;2023-07-16T02:30:15;6.90;;;1.63;;
44670;SDS011;48397;53.016;-2.260;2023-07-16T02:32:43;5.82;;;1.50;;
44670;SDS011;48397;53.016;-2.260;2023-07-16T02:35:11;7.82;;;1.80;;
44670;SDS011;48397;53.016;-2.260;2023-07-16T02:37:39;3.78;;;1.40;;
44670;SDS011;48397;53.016;-2.260;2023-07-16T02:40:07;4.80;;;1.75;;
44670;SDS011;48397;53.016;-2.260;2023-07-16T02:42:35;8.18;;;1.50;;
44670;SDS011;48397;53.016;-2.260;2023-07-16T02:45:03;7.93;;;2.13;;
44670;SDS011;48397;53.016;-2.260;2023-07-16T02:47:31;7.47;;;1.58;;
44670;SDS011;48397;53.016;-2.260;2023-07-16T02:49:59;5.60;;;1.40;;
44670;SDS011;48397;53.016;-2.260;2023-07-16T02:52:29;4.55;;;1.25;;
44670;SDS011;48397;53.016;-2.260;2023-07-16T02:54:56;4.30;;;1.38;;
44670;SDS011;48397;53.016;-2.260;2023-07-16T02:57:24;7.18;;;1.45;;
44670;SDS011;48397;53.016;-2.260;2023-07-16T02:59:52;4.72;;;1.20;;
44670;SDS011;48397;53.016;-2.260;2023-07-16T03:02:20;4.65;;;1.63;;
44670;SDS011;48397;53.016;-2.260;2023-07-16T03:04:49;3.08;;;1.50;;
44670;SDS011;48397;53.016;-2.260;2023-07-16T03:07:16;5.10;;;1.30;;
44670;SDS011;48397;53.016;-2.260;2023-07-16T03:09:44;6.13;;;1.50;;
44670;SDS011;48397;53.016;-2.260;2023-07-16T03:12:12;6.75;;;1.63;;
44670;SDS011;48397;53.016;-2.260;2023-07-16T03:14:40;4.15;;;1.38;;
44670;SDS011;48397;53.016;-2.260;2023-07-16T03:19:36;5.25;;;1.40;;
44670;SDS011;48397;53.016;-2.260;2023-07-16T03:22:04;5.05;;;1.40;;
44670;SDS011;48397;53.016;-2.260;2023-07-16T03:26:59;5.18;;;1.23;;
44670;SDS011;48397;53.016;-2.260;2023-07-16T03:29:44;5.55;;;1.40;;
44670;SDS011;48397;53.016;-2.260;2023-07-16T03:32:15;5.70;;;1.55;;
44670;SDS011;48397;53.016;-2.260;2023-07-16T03:34:42;6.47;;;2.10;;
44670;SDS011;48397;53.016;-2.260;2023-07-16T03:37:10;3.95;;;1.60;;
44670;SDS011;48397;53.016;-2.260;2023-07-16T03:39:39;7.18;;;1.40;;
44670;SDS011;48397;53.016;-2.260;2023-07-16T03:42:06;5.75;;;1.30;;
44670;SDS011;48397;53.016;-2.260;2023-07-16T03:44:35;6.85;;;1.60;;
44670;SDS011;48397;53.016;-2.260;2023-07-16T03:47:03;8.30;;;1.85;;
44670;SDS011;48397;53.016;-2.260;2023-07-16T03:49:31;3.55;;;1.30;;
44670;SDS011;48397;53.016;-2.260;2023-07-16T03:51:59;4.63;;;1.30;;
44670;SDS011;48397;53.016;-2.260;2023-07-16T03:54:27;5.13;;;1.30;;
44670;SDS011;48397;53.016;-2.260;2023-07-16T03:56:55;4.10;;;1.55;;
44670;SDS011;48397;53.016;-2.260;2023-07-16T03:59:24;4.53;;;1.48;;
44670;SDS011;48397;53.016;-2.260;2023-07-16T04:04:20;5.93;;;1.60;;
44670;SDS011;48397;53.016;-2.260;2023-07-16T04:06:48;4.53;;;1.45;;
44670;SDS011;48397;53.016;-2.260;2023-07-16T04:09:17;5.60;;;1.73;;
44670;SDS011;48397;53.016;-2.260;2023-07-16T04:11:45;3.08;;;1.50;;
44670;SDS011;48397;53.016;-2.260;2023-07-16T04:14:12;4.88;;;1.98;;
44670;SDS011;48397;53.016;-2.260;2023-07-16T04:16:40;6.05;;;1.67;;
44670;SDS011;48397;53.016;-2.260;2023-07-16T04:19:08;5.35;;;1.60;;
44670;SDS011;48397;53.016;-2.260;2023-07-16T04:21:38;7.72;;;1.85;;
44670;SDS011;48397;53.016;-2.260;2023-07-16T04:24:07;4.00;;;1.35;;
44670;SDS011;48397;53.016;-2.260;2023-07-16T04:26:35;2.20;;;0.90;;
44670;SDS011;48397;53.016;-2.260;2023-07-16T04:29:03;3.70;;;1.40;;
44670;SDS011;48397;53.016;-2.260;2023-07-16T04:33:59;4.32;;;1.42;;
44670;SDS011;48397;53.016;-2.260;2023-07-16T04:38:54;2.40;;;1.10;;
44670;SDS011;48397;53.016;-2.260;2023-07-16T04:41:22;5.18;;;1.48;;
44670;SDS011;48397;53.016;-2.260;2023-07-16T04:43:50;5.72;;;1.70;;
44670;SDS011;48397;53.016;-2.260;2023-07-16T04:46:18;5.30;;;1.83;;
44670;SDS011;48397;53.016;-2.260;2023-07-16T04:48:46;5.07;;;1.35;;
44670;SDS011;48397;53.016;-2.260;2023-07-16T04:51:15;4.45;;;1.30;;
44670;SDS011;48397;53.016;-2.260;2023-07-16T04:53:43;5.80;;;1.40;;
44670;SDS011;48397;53.016;-2.260;2023-07-16T04:56:14;3.83;;;1.40;;
44670;SDS011;48397;53.016;-2.260;2023-07-16T04:58:43;5.35;;;1.40;;
44670;SDS011;48397;53.016;-2.260;2023-07-16T05:03:39;6.10;;;1.55;;
44670;SDS011;48397;53.016;-2.260;2023-07-16T05:08:34;4.68;;;1.90;;
44670;SDS011;48397;53.016;-2.260;2023-07-16T05:11:02;4.28;;;1.52;;
44670;SDS011;48397;53.016;-2.260;2023-07-16T05:15:58;6.07;;;1.77;;
44670;SDS011;48397;53.016;-2.260;2023-07-16T05:18:25;4.40;;;2.28;;
44670;SDS011;48397;53.016;-2.260;2023-07-16T05:23:21;4.43;;;1.52;;
44670;SDS011;48397;53.016;-2.260;2023-07-16T05:28:17;7.47;;;1.70;;
44670;SDS011;48397;53.016;-2.260;2023-07-16T05:30:46;3.42;;;1.40;;
44670;SDS011;48397;53.016;-2.260;2023-07-16T05:33:14;5.05;;;1.60;;
44670;SDS011;48397;53.016;-2.260;2023-07-16T05:35:41;2.45;;;1.20;;
44670;SDS011;48397;53.016;-2.260;2023-07-16T05:38:09;9.68;;;1.90;;
44670;SDS011;48397;53.016;-2.260;2023-07-16T05:40:37;4.60;;;1.80;;
44670;SDS011;48397;53.016;-2.260;2023-07-16T05:43:04;5.18;;;1.50;;
44670;SDS011;48397;53.016;-2.260;2023-07-16T05:45:32;4.18;;;1.60;;
44670;SDS011;48397;53.016;-2.260;2023-07-16T05:48:00;3.63;;;1.50;;
44670;SDS011;48397;53.016;-2.260;2023-07-16T05:50:28;5.55;;;1.80;;
44670;SDS011;48397;53.016;-2.260;2023-07-16T05:52:56;5.53;;;1.58;;
44670;SDS011;48397;53.016;-2.260;2023-07-16T05:55:24;9.60;;;2.58;;
44670;SDS011;48397;53.016;-2.260;2023-07-16T05:57:52;4.30;;;1.50;;
44670;SDS011;48397;53.016;-2.260;2023-07-16T06:02:48;6.20;;;1.88;;
44670;SDS011;48397;53.016;-2.260;2023-07-16T06:07:43;7.88;;;2.17;;
44670;SDS011;48397;53.016;-2.260;2023-07-16T06:10:11;6.03;;;2.00;;
44670;SDS011;48397;53.016;-2.260;2023-07-16T06:12:39;8.00;;;2.80;;
44670;SDS011;48397;53.016;-2.260;2023-07-16T06:15:06;6.70;;;2.20;;
44670;SDS011;48397;53.016;-2.260;2023-07-16T06:17:35;6.07;;;2.00;;
44670;SDS011;48397;53.016;-2.260;2023-07-16T06:22:31;8.68;;;2.53;;
44670;SDS011;48397;53.016;-2.260;2023-07-16T06:24:59;5.22;;;1.88;;
44670;SDS011;48397;53.016;-2.260;2023-07-16T06:29:54;7.00;;;1.92;;
44670;SDS011;48397;53.016;-2.260;2023-07-16T06:32:22;8.32;;;1.98;;
44670;SDS011;48397;53.016;-2.260;2023-07-16T06:34:50;9.48;;;2.50;;
44670;SDS011;48397;53.016;-2.260;2023-07-16T06:37:18;6.60;;;2.13;;
44670;SDS011;48397;53.016;-2.260;2023-07-16T06:39:46;7.85;;;2.03;;
44670;SDS011;48397;53.016;-2.260;2023-07-16T06:42:13;4.57;;;1.52;;
44670;SDS011;48397;53.016;-2.260;2023-07-16T06:44:42;5.72;;;1.50;;
44670;SDS011;48397;53.016;-2.260;2023-07-16T06:47:09;8.25;;;2.03;;
44670;SDS011;48397;53.016;-2.260;2023-07-16T06:49:37;8.02;;;1.90;;
44670;SDS011;48397;53.016;-2.260;2023-07-16T06:52:05;7.32;;;1.90;;
44670;SDS011;48397;53.016;-2.260;2023-07-16T06:54:33;5.93;;;2.10;;
44670;SDS011;48397;53.016;-2.260;2023-07-16T06:57:02;6.57;;;1.90;;
44670;SDS011;48397;53.016;-2.260;2023-07-16T06:59:30;5.65;;;1.85;;
44670;SDS011;48397;53.016;-2.260;2023-07-16T07:01:57;7.55;;;2.10;;
44670;SDS011;48397;53.016;-2.260;2023-07-16T07:04:25;5.95;;;1.70;;
44670;SDS011;48397;53.016;-2.260;2023-07-16T07:06:53;5.70;;;1.60;;
44670;SDS011;48397;53.016;-2.260;2023-07-16T07:09:21;7.20;;;1.70;;
44670;SDS011;48397;53.016;-2.260;2023-07-16T07:11:48;6.85;;;1.83;;
44670;SDS011;48397;53.016;-2.260;2023-07-16T07:14:16;11.23;;;2.10;;
44670;SDS011;48397;53.016;-2.260;2023-07-16T07:16:44;5.38;;;1.85;;
44670;SDS011;48397;53.016;-2.260;2023-07-16T07:19:12;5.70;;;1.52;;
44670;SDS011;48397;53.016;-2.260;2023-07-16T07:21:40;5.65;;;1.50;;
44670;SDS011;48397;53.016;-2.260;2023-07-16T07:24:07;6.75;;;1.80;;
44670;SDS011;48397;53.016;-2.260;2023-07-16T07:26:35;6.45;;;1.65;;
44670;SDS011;48397;53.016;-2.260;2023-07-16T07:29:03;6.93;;;1.75;;
44670;SDS011;48397;53.016;-2.260;2023-07-16T07:31:31;4.72;;;1.38;;
44670;SDS011;48397;53.016;-2.260;2023-07-16T07:33:59;5.38;;;1.60;;
44670;SDS011;48397;53.016;-2.260;2023-07-16T07:36:28;7.63;;;1.77;;
44670;SDS011;48397;53.016;-2.260;2023-07-16T07:38:56;3.28;;;1.48;;
44670;SDS011;48397;53.016;-2.260;2023-07-16T07:41:23;5.20;;;1.60;;
44670;SDS011;48397;53.016;-2.260;2023-07-16T07:43:51;5.75;;;1.90;;
44670;SDS011;48397;53.016;-2.260;2023-07-16T07:46:19;5.78;;;2.03;;
44670;SDS011;48397;53.016;-2.260;2023-07-16T07:48:47;6.13;;;1.77;;
44670;SDS011;48397;53.016;-2.260;2023-07-16T07:51:14;6.95;;;1.60;;
44670;SDS011;48397;53.016;-2.260;2023-07-16T07:53:42;4.90;;;1.70;;
44670;SDS011;48397;53.016;-2.260;2023-07-16T07:56:10;3.17;;;1.50;;
44670;SDS011;48397;53.016;-2.260;2023-07-16T07:58:38;7.47;;;2.05;;
44670;SDS011;48397;53.016;-2.260;2023-07-16T08:03:34;7.47;;;2.50;;
44670;SDS011;48397;53.016;-2.260;2023-07-16T08:06:02;4.97;;;1.63;;
44670;SDS011;48397;53.016;-2.260;2023-07-16T08:08:30;4.63;;;1.67;;
44670;SDS011;48397;53.016;-2.260;2023-07-16T08:10:58;4.88;;;1.55;;
44670;SDS011;48397;53.016;-2.260;2023-07-16T08:13:25;4.55;;;1.40;;
44670;SDS011;48397;53.016;-2.260;2023-07-16T08:18:21;6.00;;;1.63;;
44670;SDS011;48397;53.016;-2.260;2023-07-16T08:20:49;7.63;;;1.88;;
44670;SDS011;48397;53.016;-2.260;2023-07-16T08:23:16;4.68;;;1.60;;
44670;SDS011;48397;53.016;-2.260;2023-07-16T08:25:46;7.60;;;1.33;;
44670;SDS011;48397;53.016;-2.260;2023-07-16T08:28:14;4.28;;;2.05;;
44670;SDS011;48397;53.016;-2.260;2023-07-16T08:33:13;3.60;;;1.52;;
44670;SDS011;48397;53.016;-2.260;2023-07-16T08:35:41;5.93;;;1.80;;
44670;SDS011;48397;53.016;-2.260;2023-07-16T08:38:09;2.17;;;1.20;;
44670;SDS011;48397;53.016;-2.260;2023-07-16T08:40:38;3.90;;;1.27;;
44670;SDS011;48397;53.016;-2.260;2023-07-16T08:43:06;4.85;;;1.40;;
44670;SDS011;48397;53.016;-2.260;2023-07-16T08:45:38;4.35;;;1.48;;
44670;SDS011;48397;53.016;-2.260;2023-07-16T08:48:07;3.42;;;1.60;;
44670;SDS011;48397;53.016;-2.260;2023-07-16T08:50:36;4.07;;;1.45;;
44670;SDS011;48397;53.016;-2.260;2023-07-16T08:53:05;4.05;;;1.40;;
44670;SDS011;48397;53.016;-2.260;2023-07-16T08:55:33;3.25;;;1.20;;
44670;SDS011;48397;53.016;-2.260;2023-07-16T08:58:05;6.45;;;1.45;;
44670;SDS011;48397;53.016;-2.260;2023-07-16T09:00:34;4.40;;;1.10;;
44670;SDS011;48397;53.016;-2.260;2023-07-16T09:03:02;4.38;;;1.40;;
44670;SDS011;48397;53.016;-2.260;2023-07-16T09:05:31;3.22;;;1.35;;
44670;SDS011;48397;53.016;-2.260;2023-07-16T09:08:07;7.15;;;1.58;;
44670;SDS011;48397;53.016;-2.260;2023-07-16T09:10:35;4.93;;;1.10;;
44670;SDS011;48397;53.016;-2.260;2023-07-16T09:13:03;5.50;;;1.40;;
44670;SDS011;48397;53.016;-2.260;2023-07-16T09:15:31;3.58;;;1.42;;
44670;SDS011;48397;53.016;-2.260;2023-07-16T09:18:01;6.43;;;1.42;;
44670;SDS011;48397;53.016;-2.260;2023-07-16T09:20:30;4.15;;;1.25;;
44670;SDS011;48397;53.016;-2.260;2023-07-16T09:22:57;2.65;;;0.98;;
44670;SDS011;48397;53.016;-2.260;2023-07-16T09:25:29;2.22;;;0.88;;
44670;SDS011;48397;53.016;-2.260;2023-07-16T09:27:58;3.42;;;0.95;;
44670;SDS011;48397;53.016;-2.260;2023-07-16T09:30:33;3.33;;;1.10;;
44670;SDS011;48397;53.016;-2.260;2023-07-16T09:33:13;4.40;;;1.02;;
44670;SDS011;48397;53.016;-2.260;2023-07-16T09:35:43;6.20;;;1.42;;
44670;SDS011;48397;53.016;-2.260;2023-07-16T09:38:12;3.08;;;1.27;;
44670;SDS011;48397;53.016;-2.260;2023-07-16T09:40:40;4.65;;;1.00;;
44670;SDS011;48397;53.016;-2.260;2023-07-16T09:43:11;3.97;;;1.00;;
44670;SDS011;48397;53.016;-2.260;2023-07-16T09:45:40;3.88;;;0.90;;
44670;SDS011;48397;53.016;-2.260;2023-07-16T09:48:09;4.05;;;0.93;;
44670;SDS011;48397;53.016;-2.260;2023-07-16T09:50:37;3.30;;;0.80;;
44670;SDS011;48397;53.016;-2.260;2023-07-16T09:53:08;3.20;;;1.02;;
44670;SDS011;48397;53.016;-2.260;2023-07-16T09:58:06;4.45;;;0.90;;
44670;SDS011;48397;53.016;-2.260;2023-07-16T10:00:36;3.42;;;0.95;;
44670;SDS011;48397;53.016;-2.260;2023-07-16T10:03:09;2.03;;;1.00;;
44670;SDS011;48397;53.016;-2.260;2023-07-16T10:05:37;5.20;;;1.15;;
44670;SDS011;48397;53.016;-2.260;2023-07-16T10:13:12;2.20;;;1.00;;
44670;SDS011;48397;53.016;-2.260;2023-07-16T10:16:01;4.07;;;0.82;;
44670;SDS011;48397;53.016;-2.260;2023-07-16T10:18:30;4.88;;;1.30;;
44670;SDS011;48397;53.016;-2.260;2023-07-16T10:21:06;3.92;;;1.00;;
44670;SDS011;48397;53.016;-2.260;2023-07-16T10:23:42;1.98;;;0.63;;
44670;SDS011;48397;53.016;-2.260;2023-07-16T10:26:12;1.30;;;0.50;;
44670;SDS011;48397;53.016;-2.260;2023-07-16T10:28:46;1.77;;;0.70;;
44670;SDS011;48397;53.016;-2.260;2023-07-16T10:31:20;5.15;;;1.00;;
44670;SDS011;48397;53.016;-2.260;2023-07-16T10:34:03;1.85;;;0.70;;
44670;SDS011;48397;53.016;-2.260;2023-07-16T10:36:41;2.13;;;0.95;;
44670;SDS011;48397;53.016;-2.260;2023-07-16T10:39:09;2.60;;;1.00;;
44670;SDS011;48397;53.016;-2.260;2023-07-16T10:41:37;3.17;;;0.90;;
44670;SDS011;48397;53.016;-2.260;2023-07-16T10:46:35;2.70;;;0.70;;
44670;SDS011;48397;53.016;-2.260;2023-07-16T10:49:03;1.67;;;0.60;;
44670;SDS011;48397;53.016;-2.260;2023-07-16T10:51:31;2.25;;;0.85;;
44670;SDS011;48397;53.016;-2.260;2023-07-16T10:53:59;3.97;;;0.93;;
44670;SDS011;48397;53.016;-2.260;2023-07-16T10:56:27;2.55;;;0.93;;
44670;SDS011;48397;53.016;-2.260;2023-07-16T10:58:55;1.23;;;0.73;;
44670;SDS011;48397;53.016;-2.260;2023-07-16T11:08:46;4.63;;;0.70;;
44670;SDS011;48397;53.016;-2.260;2023-07-16T11:11:16;1.70;;;0.75;;
44670;SDS011;48397;53.016;-2.260;2023-07-16T11:13:45;1.70;;;0.75;;
44670;SDS011;48397;53.016;-2.260;2023-07-16T11:16:16;2.72;;;0.65;;
44670;SDS011;48397;53.016;-2.260;2023-07-16T11:18:47;4.55;;;0.80;;
44670;SDS011;48397;53.016;-2.260;2023-07-16T11:21:15;2.92;;;0.70;;
44670;SDS011;48397;53.016;-2.260;2023-07-16T11:23:47;1.65;;;0.75;;
44670;SDS011;48397;53.016;-2.260;2023-07-16T11:26:15;1.67;;;0.65;;
44670;SDS011;48397;53.016;-2.260;2023-07-16T11:28:43;1.80;;;0.60;;
44670;SDS011;48397;53.016;-2.260;2023-07-16T11:31:16;3.03;;;0.93;;
44670;SDS011;48397;53.016;-2.260;2023-07-16T11:33:44;2.05;;;0.73;;
44670;SDS011;48397;53.016;-2.260;2023-07-16T11:36:13;1.30;;;0.60;;
44670;SDS011;48397;53.016;-2.260;2023-07-16T11:38:41;2.45;;;0.68;;
44670;SDS011;48397;53.016;-2.260;2023-07-16T11:43:39;0.50;;;0.50;;
44670;SDS011;48397;53.016;-2.260;2023-07-16T11:46:14;2.75;;;0.95;;
44670;SDS011;48397;53.016;-2.260;2023-07-16T11:51:46;3.47;;;0.85;;
44670;SDS011;48397;53.016;-2.260;2023-07-16T11:54:14;2.38;;;0.90;;
44670;SDS011;48397;53.016;-2.260;2023-07-16T11:56:42;3.53;;;1.00;;
44670;SDS011;48397;53.016;-2.260;2023-07-16T11:59:09;1.35;;;0.60;;
44670;SDS011;48397;53.016;-2.260;2023-07-16T12:01:40;3.33;;;0.90;;
44670;SDS011;48397;53.016;-2.260;2023-07-16T12:04:08;3.33;;;0.60;;
44670;SDS011;48397;53.016;-2.260;2023-07-16T12:11:31;2.47;;;0.90;;
44670;SDS011;48397;53.016;-2.260;2023-07-16T12:13:59;0.88;;;0.60;;
44670;SDS011;48397;53.016;-2.260;2023-07-16T12:16:26;1.08;;;0.55;;
44670;SDS011;48397;53.016;-2.260;2023-07-16T12:18:54;1.88;;;0.80;;
44670;SDS011;48397;53.016;-2.260;2023-07-16T12:21:22;1.45;;;0.68;;
44670;SDS011;48397;53.016;-2.260;2023-07-16T12:23:50;3.22;;;0.82;;
44670;SDS011;48397;53.016;-2.260;2023-07-16T12:26:18;3.20;;;0.70;;
44670;SDS011;48397;53.016;-2.260;2023-07-16T12:28:47;3.45;;;0.60;;
44670;SDS011;48397;53.016;-2.260;2023-07-16T12:33:44;2.38;;;0.60;;
44670;SDS011;48397;53.016;-2.260;2023-07-16T12:36:12;0.63;;;0.57;;
44670;SDS011;48397;53.016;-2.260;2023-07-16T12:38:41;2.00;;;0.80;;
44670;SDS011;48397;53.016;-2.260;2023-07-16T12:43:37;0.35;;;0.30;;
44670;SDS011;48397;53.016;-2.260;2023-07-16T12:46:06;1.00;;;0.60;;
44670;SDS011;48397;53.016;-2.260;2023-07-16T12:48:34;0.80;;;0.47;;
44670;SDS011;48397;53.016;-2.260;2023-07-16T12:51:02;0.68;;;0.60;;
44670;SDS011;48397;53.016;-2.260;2023-07-16T12:53:30;1.60;;;0.30;;
44670;SDS011;48397;53.016;-2.260;2023-07-16T12:55:58;2.00;;;0.55;;
44670;SDS011;48397;53.016;-2.260;2023-07-16T12:58:26;1.42;;;0.52;;
44670;SDS011;48397;53.016;-2.260;2023-07-16T13:00:54;1.50;;;0.60;;
44670;SDS011;48397;53.016;-2.260;2023-07-16T13:03:22;1.10;;;0.40;;
44670;SDS011;48397;53.016;-2.260;2023-07-16T13:05:50;3.03;;;1.08;;
44670;SDS011;48397;53.016;-2.260;2023-07-16T13:08:17;1.52;;;0.60;;
44670;SDS011;48397;53.016;-2.260;2023-07-16T13:13:13;1.77;;;0.60;;
44670;SDS011;48397;53.016;-2.260;2023-07-16T13:15:41;1.52;;;0.80;;
44670;SDS011;48397;53.016;-2.260;2023-07-16T13:18:09;2.92;;;0.95;;
44670;SDS011;48397;53.016;-2.260;2023-07-16T13:20:38;2.33;;;0.90;;
44670;SDS011;48397;53.016;-2.260;2023-07-16T13:23:06;1.70;;;0.73;;
44670;SDS011;48397;53.016;-2.260;2023-07-16T13:25:36;1.10;;;0.80;;
44670;SDS011;48397;53.016;-2.260;2023-07-16T13:28:06;2.17;;;0.98;;
44670;SDS011;48397;53.016;-2.260;2023-07-16T13:30:35;4.40;;;1.17;;
44670;SDS011;48397;53.016;-2.260;2023-07-16T13:33:03;0.70;;;0.60;;
44670;SDS011;48397;53.016;-2.260;2023-07-16T13:37:58;1.92;;;0.63;;
44670;SDS011;48397;53.016;-2.260;2023-07-16T13:40:26;1.60;;;0.80;;
44670;SDS011;48397;53.016;-2.260;2023-07-16T13:42:54;2.22;;;0.70;;
44670;SDS011;48397;53.016;-2.260;2023-07-16T13:45:21;2.72;;;0.93;;
44670;SDS011;48397;53.016;-2.260;2023-07-16T13:47:50;3.55;;;0.90;;
44670;SDS011;48397;53.016;-2.260;2023-07-16T13:50:22;2.30;;;0.90;;
44670;SDS011;48397;53.016;-2.260;2023-07-16T13:52:50;1.45;;;0.63;;
44670;SDS011;48397;53.016;-2.260;2023-07-16T13:55:19;1.63;;;0.90;;
44670;SDS011;48397;53.016;-2.260;2023-07-16T13:57:48;1.77;;;1.15;;
44670;SDS011;48397;53.016;-2.260;2023-07-16T14:00:16;2.85;;;0.82;;
44670;SDS011;48397;53.016;-2.260;2023-07-16T14:05:12;1.67;;;0.68;;
44670;SDS011;48397;53.016;-2.260;2023-07-16T14:07:40;2.95;;;0.82;;
44670;SDS011;48397;53.016;-2.260;2023-07-16T14:10:08;2.60;;;1.05;;
44670;SDS011;48397;53.016;-2.260;2023-07-16T14:12:36;3.58;;;0.73;;
44670;SDS011;48397;53.016;-2.260;2023-07-16T14:15:04;5.20;;;0.90;;
44670;SDS011;48397;53.016;-2.260;2023-07-16T14:17:33;2.45;;;0.75;;
44670;SDS011;48397;53.016;-2.260;2023-07-16T14:20:01;2.30;;;1.13;;
44670;SDS011;48397;53.016;-2.260;2023-07-16T14:22:29;2.80;;;0.90;;
44670;SDS011;48397;53.016;-2.260;2023-07-16T14:24:57;2.70;;;0.90;;
44670;SDS011;48397;53.016;-2.260;2023-07-16T14:27:25;2.28;;;0.90;;
44670;SDS011;48397;53.016;-2.260;2023-07-16T14:29:53;1.65;;;0.80;;
44670;SDS011;48397;53.016;-2.260;2023-07-16T14:32:33;2.20;;;0.80;;
44670;SDS011;48397;53.016;-2.260;2023-07-16T14:35:01;2.40;;;0.90;;
44670;SDS011;48397;53.016;-2.260;2023-07-16T14:37:30;3.25;;;1.10;;
44670;SDS011;48397;53.016;-2.260;2023-07-16T14:42:27;3.53;;;0.90;;
44670;SDS011;48397;53.016;-2.260;2023-07-16T14:47:23;4.28;;;0.90;;
44670;SDS011;48397;53.016;-2.260;2023-07-16T14:52:18;1.48;;;0.85;;
44670;SDS011;48397;53.016;-2.260;2023-07-16T14:57:14;3.45;;;1.00;;
44670;SDS011;48397;53.016;-2.260;2023-07-16T14:59:41;3.15;;;0.98;;
44670;SDS011;48397;53.016;-2.260;2023-07-16T15:02:10;1.65;;;0.90;;
44670;SDS011;48397;53.016;-2.260;2023-07-16T15:07:05;1.95;;;0.75;;
44670;SDS011;48397;53.016;-2.260;2023-07-16T15:09:35;1.77;;;0.90;;
44670;SDS011;48397;53.016;-2.260;2023-07-16T15:12:05;2.35;;;1.00;;
44670;SDS011;48397;53.016;-2.260;2023-07-16T15:14:35;1.40;;;0.70;;
44670;SDS011;48397;53.016;-2.260;2023-07-16T15:17:04;3.13;;;1.30;;
44670;SDS011;48397;53.016;-2.260;2023-07-16T15:19:33;3.03;;;0.88;;
44670;SDS011;48397;53.016;-2.260;2023-07-16T15:22:03;3.53;;;0.90;;
44670;SDS011;48397;53.016;-2.260;2023-07-16T15:24:36;2.58;;;0.90;;
44670;SDS011;48397;53.016;-2.260;2023-07-16T15:27:05;1.98;;;0.90;;
44670;SDS011;48397;53.016;-2.260;2023-07-16T15:29:33;2.95;;;1.15;;
44670;SDS011;48397;53.016;-2.260;2023-07-16T15:34:29;1.90;;;0.90;;
44670;SDS011;48397;53.016;-2.260;2023-07-16T15:36:57;5.80;;;1.20;;
44670;SDS011;48397;53.016;-2.260;2023-07-16T15:39:25;5.13;;;0.98;;
44670;SDS011;48397;53.016;-2.260;2023-07-16T15:44:20;5.15;;;1.00;;
44670;SDS011;48397;53.016;-2.260;2023-07-16T15:54:10;2.63;;;0.70;;
44670;SDS011;48397;53.016;-2.260;2023-07-16T15:56:38;1.15;;;0.60;;
44670;SDS011;48397;53.016;-2.260;2023-07-16T15:59:07;2.33;;;0.80;;
44670;SDS011;48397;53.016;-2.260;2023-07-16T16:01:38;2.05;;;0.85;;
44670;SDS011;48397;53.016;-2.260;2023-07-16T16:04:09;1.67;;;0.70;;
44670;SDS011;48397;53.016;-2.260;2023-07-16T16:09:06;4.45;;;0.90;;
44670;SDS011;48397;53.016;-2.260;2023-07-16T16:11:34;2.40;;;0.73;;
44670;SDS011;48397;53.016;-2.260;2023-07-16T16:14:06;2.05;;;0.88;;
44670;SDS011;48397;53.016;-2.260;2023-07-16T16:16:43;3.20;;;0.95;;
44670;SDS011;48397;53.016;-2.260;2023-07-16T16:19:31;2.00;;;0.80;;
44670;SDS011;48397;53.016;-2.260;2023-07-16T16:21:59;3.15;;;0.85;;
44670;SDS011;48397;53.016;-2.260;2023-07-16T16:24:28;6.13;;;1.00;;
44670;SDS011;48397;53.016;-2.260;2023-07-16T16:26:56;2.83;;;0.80;;
44670;SDS011;48397;53.016;-2.260;2023-07-16T16:29:24;3.05;;;1.23;;
44670;SDS011;48397;53.016;-2.260;2023-07-16T16:36:47;2.33;;;1.27;;
44670;SDS011;48397;53.016;-2.260;2023-07-16T16:39:15;5.25;;;1.30;;
44670;SDS011;48397;53.016;-2.260;2023-07-16T16:41:43;4.30;;;1.20;;
44670;SDS011;48397;53.016;-2.260;2023-07-16T16:44:12;3.25;;;1.00;;
44670;SDS011;48397;53.016;-2.260;2023-07-16T16:46:40;4.22;;;1.10;;
44670;SDS011;48397;53.016;-2.260;2023-07-16T16:54:03;4.22;;;0.93;;
44670;SDS011;48397;53.016;-2.260;2023-07-16T16:56:31;2.65;;;1.10;;
44670;SDS011;48397;53.016;-2.260;2023-07-16T16:59:00;3.92;;;0.93;;
44670;SDS011;48397;53.016;-2.260;2023-07-16T17:01:28;3.97;;;1.00;;
44670;SDS011;48397;53.016;-2.260;2023-07-16T17:03:56;2.15;;;0.77;;
44670;SDS011;48397;53.016;-2.260;2023-07-16T17:06:24;9.35;;;1.75;;
44670;SDS011;48397;53.016;-2.260;2023-07-16T17:08:52;3.58;;;1.05;;